Time;durP1;ratioP1;P1;durP2;ratioP2;P2;SDS_P1;SDS_P2;PMS_P1;PMS_P2;Temp;Humidity;BMP_temperature;BMP_pressure;BME280_temperature;BME280_humidity;BME280_pressure;Samples;Min_cycle;Max_cycle;Signal;HPM_P1;HPM_P2
2021/12/30 00:04:46;;;;;;;0.40;0.40;;;;;;;18.05;54.69;96669.00;10404652;28;20072;-20
2021/12/30 00:09:48;;;;;;;0.45;0.38;;;;;;;18.06;54.80;96672.34;10405660;28;20527;-20
2021/12/30 00:14:48;;;;;;;0.55;0.55;;;;;;;18.07;54.79;96689.28;10401639;28;20041;-20
2021/12/30 00:19:49;;;;;;;0.80;0.50;;;;;;;18.07;54.78;96702.75;10398787;28;20037;-20
2021/12/30 00:24:49;;;;;;;0.30;0.30;;;;;;;18.07;54.92;96712.91;10409209;28;20541;-19
2021/12/30 00:29:50;;;;;;;0.30;0.30;;;;;;;18.08;54.62;96716.28;10411749;28;20542;-20
2021/12/30 00:34:50;;;;;;;0.35;0.35;;;;;;;18.11;54.52;96711.22;10406103;28;20034;-20
2021/12/30 00:39:51;;;;;;;0.50;0.40;;;;;;;18.14;54.62;96718.81;10412701;28;20041;-19
2021/12/30 00:44:52;;;;;;;0.30;0.30;;;;;;;18.10;54.44;96719.66;10407892;28;20041;-20
2021/12/30 00:49:52;;;;;;;0.30;0.30;;;;;;;18.08;54.70;96719.66;10407968;28;20526;-20
2021/12/30 00:54:53;;;;;;;0.30;0.30;;;;;;;18.08;54.66;96718.81;10412352;28;20431;-20
2021/12/30 00:59:53;;;;;;;0.30;0.30;;;;;;;17.88;54.60;96702.72;10404149;28;20037;-20
2021/12/30 01:04:53;;;;;;;0.37;0.30;;;;;;;18.08;54.56;96744.16;10410401;28;20116;-20
2021/12/30 01:09:54;;;;;;;0.40;0.30;;;;;;;18.07;54.75;96752.59;10411344;28;20029;-20
2021/12/30 01:14:55;;;;;;;0.35;0.35;;;;;;;18.05;54.90;96755.13;10408219;28;20706;-19
2021/12/30 01:19:55;;;;;;;0.20;0.20;;;;;;;18.07;54.18;96762.75;10404077;28;20029;-19
2021/12/30 01:24:56;;;;;;;0.30;0.30;;;;;;;18.06;54.75;96771.16;10410842;28;20484;-19
2021/12/30 01:29:57;;;;;;;0.50;0.30;;;;;;;18.08;54.48;96777.09;10402930;28;20061;-19
2021/12/30 01:34:59;;;;;;;0.40;0.40;;;;;;;18.15;54.38;96796.53;10403821;28;20037;-20
2021/12/30 01:39:59;;;;;;;0.40;0.40;;;;;;;18.03;54.43;96789.75;10409791;28;20458;-20
2021/12/30 01:45:00;;;;;;;0.55;0.35;;;;;;;18.10;54.54;96803.28;10408153;28;20032;-20
2021/12/30 01:50:00;;;;;;;0.25;0.25;;;;;;;18.08;54.81;96813.38;10405854;28;20064;-20
2021/12/30 01:55:01;;;;;;;0.40;0.40;;;;;;;18.08;54.43;96820.16;10409327;28;20640;-20
2021/12/30 02:00:05;;;;;;;0.40;0.38;;;;;;;18.08;54.63;96825.22;10402927;28;20458;-20
2021/12/30 02:05:12;;;;;;;0.30;0.25;;;;;;;18.07;54.59;96813.41;10408585;28;20492;-20
2021/12/30 02:10:14;;;;;;;0.38;0.30;;;;;;;18.07;54.69;96841.28;10409028;28;20042;-20
2021/12/30 02:15:17;;;;;;;0.47;0.30;;;;;;;18.05;54.78;96832.78;10406374;28;20037;-20
2021/12/30 02:21:01;;;;;;;0.30;0.30;;;;;;;18.08;54.50;96812.56;10402500;28;20053;-19
2021/12/30 02:26:05;;;;;;;0.40;0.35;;;;;;;18.08;54.46;96810.84;10403572;28;20041;-20
2021/12/30 02:31:11;;;;;;;0.28;0.28;;;;;;;18.12;54.36;96812.56;10406365;28;20048;-20
2021/12/30 02:36:14;;;;;;;0.30;0.30;;;;;;;18.06;54.69;96814.22;10401817;28;20508;-20
2021/12/30 02:41:18;;;;;;;0.60;0.30;;;;;;;18.06;54.57;96821.81;10401342;28;20037;-20
2021/12/30 02:46:23;;;;;;;0.20;0.20;;;;;;;18.06;54.55;96822.69;10406467;28;20041;-20
2021/12/30 02:51:26;;;;;;;0.30;0.30;;;;;;;18.08;54.61;96832.84;10395445;28;20452;-21
2021/12/30 02:56:29;;;;;;;0.25;0.20;;;;;;;18.07;54.77;96833.69;10404223;28;20037;-20
2021/12/30 03:01:31;;;;;;;0.25;0.25;;;;;;;18.07;54.72;96849.72;10407434;28;20050;-20
2021/12/30 03:06:33;;;;;;;0.28;0.20;;;;;;;18.06;54.67;96849.69;10406365;28;20476;-19
2021/12/30 03:11:34;;;;;;;0.20;0.20;;;;;;;18.00;54.68;96831.97;10405691;28;20037;-20
2021/12/30 03:16:38;;;;;;;0.43;0.38;;;;;;;18.07;54.65;96837.03;10407025;28;20041;-20
2021/12/30 03:21:40;;;;;;;0.20;0.20;;;;;;;18.11;54.68;96837.91;10400808;28;20068;-19
2021/12/30 03:26:40;;;;;;;0.28;0.28;;;;;;;18.10;54.44;96839.59;10405903;28;20033;-20
2021/12/30 03:31:40;;;;;;;0.50;0.30;;;;;;;18.12;54.52;96842.13;10403691;28;20045;-20
2021/12/30 03:36:41;;;;;;;0.63;0.30;;;;;;;18.09;54.54;96849.72;10399270;28;20069;-20
2021/12/30 03:41:41;;;;;;;0.40;0.30;;;;;;;18.10;54.49;96851.41;10403823;28;20548;-20
2021/12/30 03:46:42;;;;;;;0.40;0.30;;;;;;;18.08;54.52;96853.09;10405599;28;20025;-19
2021/12/30 03:51:42;;;;;;;0.20;0.20;;;;;;;18.09;54.57;96857.31;10402613;28;20296;-20
2021/12/30 03:56:43;;;;;;;0.20;0.20;;;;;;;18.09;54.38;96862.38;10405057;28;20033;-20
2021/12/30 04:01:43;;;;;;;0.28;0.28;;;;;;;18.08;54.38;96861.53;10409115;28;20866;-19
2021/12/30 04:06:43;;;;;;;0.50;0.40;;;;;;;18.08;54.55;96878.44;10407681;28;20025;-20
2021/12/30 04:11:44;;;;;;;1.47;0.37;;;;;;;18.02;54.37;96871.66;10409480;28;20029;-19
2021/12/30 04:16:45;;;;;;;0.20;0.20;;;;;;;18.07;54.35;96889.41;10413079;28;20295;-20
2021/12/30 04:21:45;;;;;;;0.30;0.30;;;;;;;18.14;54.24;96897.03;10407375;28;20558;-20
2021/12/30 04:26:46;;;;;;;0.30;0.30;;;;;;;18.09;54.55;96891.09;10407184;28;20113;-20
2021/12/30 04:31:47;;;;;;;0.20;0.20;;;;;;;18.11;54.57;96913.91;10413441;28;20021;-20
2021/12/30 04:36:47;;;;;;;0.30;0.20;;;;;;;18.09;54.66;96901.22;10404894;28;20121;-19
2021/12/30 04:41:48;;;;;;;0.20;0.10;;;;;;;18.11;54.50;96912.22;10413019;28;20462;-20
2021/12/30 04:46:48;;;;;;;0.30;0.30;;;;;;;18.13;54.35;96930.81;10407102;28;20551;-20
2021/12/30 04:51:49;;;;;;;0.37;0.37;;;;;;;18.15;54.55;96933.38;10408422;28;20565;-20
2021/12/30 04:56:51;;;;;;;0.30;0.30;;;;;;;18.14;54.57;96941.78;10408124;28;20128;-20
2021/12/30 05:01:51;;;;;;;0.35;0.22;;;;;;;17.98;54.59;96919.78;10408846;28;20048;-20
2021/12/30 05:06:51;;;;;;;0.30;0.30;;;;;;;18.15;54.57;96940.97;10410772;28;20554;-20
2021/12/30 05:11:52;;;;;;;0.20;0.20;;;;;;;18.19;54.37;96956.19;10407659;28;20299;-20
2021/12/30 05:16:53;;;;;;;0.30;0.20;;;;;;;18.23;54.10;96959.56;10406624;28;20037;-19
2021/12/30 05:21:53;;;;;;;0.10;0.10;;;;;;;18.24;54.25;96973.97;10404825;28;20296;-20
2021/12/30 05:26:54;;;;;;;0.20;0.20;;;;;;;18.20;54.35;96968.03;10409139;28;20037;-20
2021/12/30 05:31:54;;;;;;;0.20;0.20;;;;;;;18.20;54.38;96965.50;10409840;28;20029;-20
2021/12/30 05:36:54;;;;;;;0.40;0.30;;;;;;;18.20;54.49;96972.22;10404027;28;20068;-19
2021/12/30 05:41:55;;;;;;;0.13;0.13;;;;;;;18.21;54.45;96982.38;10408710;28;20041;-19
2021/12/30 05:46:55;;;;;;;0.20;0.20;;;;;;;18.21;54.42;96989.13;10410001;28;20280;-20
2021/12/30 05:51:56;;;;;;;0.10;0.10;;;;;;;18.20;54.58;96990.84;10406151;28;20037;-19
2021/12/30 05:56:56;;;;;;;0.10;0.10;;;;;;;18.21;54.56;96999.25;10409429;28;20091;-20
2021/12/30 06:01:56;;;;;;;0.47;0.30;;;;;;;18.21;54.58;97002.66;10399370;28;20036;-20
2021/12/30 06:06:58;;;;;;;1.67;0.50;;;;;;;18.24;54.45;97014.50;10406743;28;20296;-20
2021/12/30 06:11:58;;;;;;;1.33;0.32;;;;;;;18.24;54.53;97024.66;10406038;28;20037;-20
2021/12/30 06:16:58;;;;;;;2.67;0.80;;;;;;;18.26;54.66;97035.63;10405287;28;20438;-20
2021/12/30 06:21:59;;;;;;;0.63;0.40;;;;;;;18.25;54.64;97031.41;10402120;28;20667;-21
2021/12/30 06:26:59;;;;;;;3.40;0.40;;;;;;;18.18;54.58;97022.06;10407184;28;20458;-20
2021/12/30 06:32:01;;;;;;;2.33;0.35;;;;;;;18.24;54.66;97039.84;10408112;28;20349;-21
2021/12/30 06:37:01;;;;;;;0.85;0.47;;;;;;;18.23;55.03;97033.06;10401419;28;20451;-20
2021/12/30 06:42:02;;;;;;;1.17;0.30;;;;;;;18.23;54.77;97033.91;10403122;28;20037;-20
2021/12/30 06:47:04;;;;;;;0.30;0.30;;;;;;;18.24;54.77;97034.78;10407403;28;20041;-20
2021/12/30 06:52:13;;;;;;;0.60;0.25;;;;;;;18.26;54.56;97035.63;10403864;28;20039;-21
2021/12/30 06:57:14;;;;;;;0.93;0.40;;;;;;;18.24;54.59;97044.91;10407310;28;20040;-20
2021/12/30 07:02:14;;;;;;;0.70;0.30;;;;;;;18.26;54.75;97048.31;10405885;28;20040;-20
2021/12/30 07:07:15;;;;;;;1.77;0.40;;;;;;;18.29;54.51;97066.03;10406196;28;20037;-20
2021/12/30 07:12:15;;;;;;;1.60;0.30;;;;;;;18.25;54.68;97066.88;10403033;28;20677;-20
2021/12/30 07:17:15;;;;;;;0.70;0.47;;;;;;;18.26;54.66;97068.56;10406022;28;20326;-20
2021/12/30 07:22:16;;;;;;;2.08;0.68;;;;;;;18.25;54.63;97071.94;10400337;28;20029;-20
2021/12/30 07:27:16;;;;;;;0.47;0.47;;;;;;;18.25;54.61;97077.84;10405503;28;20045;-20
2021/12/30 07:32:17;;;;;;;0.53;0.50;;;;;;;18.23;54.72;97094.75;10405927;28;20041;-20
2021/12/30 07:37:18;;;;;;;0.38;0.25;;;;;;;18.23;54.65;97091.34;10399451;28;20041;-21
2021/12/30 07:42:18;;;;;;;0.75;0.50;;;;;;;18.21;54.87;97103.16;10401068;28;20075;-20
2021/12/30 07:47:19;;;;;;;0.80;0.50;;;;;;;18.21;54.78;97115.84;10405670;28;20041;-20
2021/12/30 07:52:19;;;;;;;3.25;0.47;;;;;;;18.21;54.59;97116.69;10402488;28;20059;-20
2021/12/30 07:57:23;;;;;;;0.30;0.30;;;;;;;18.21;54.96;97108.22;10397286;28;20498;-20
2021/12/30 08:02:23;;;;;;;0.50;0.30;;;;;;;18.25;54.70;97118.41;10406468;28;20476;-20
2021/12/30 08:07:24;;;;;;;0.90;0.50;;;;;;;18.22;54.83;97117.53;10399024;28;20094;-20
2021/12/30 08:12:24;;;;;;;2.25;0.73;;;;;;;18.07;54.69;97099.69;10404344;28;20033;-20
2021/12/30 08:17:25;;;;;;;0.50;0.50;;;;;;;18.22;54.60;97132.72;10404845;28;20511;-20
2021/12/30 08:22:25;;;;;;;1.97;1.80;;;;;;;18.20;54.80;97136.94;10399540;28;20394;-20
2021/12/30 08:27:26;;;;;;;1.27;0.52;;;;;;;18.20;54.60;97140.34;10401735;28;20110;-20
2021/12/30 08:32:26;;;;;;;1.30;0.50;;;;;;;18.20;54.68;97152.16;10405241;28;20030;-20
2021/12/30 08:37:27;;;;;;;0.65;0.60;;;;;;;18.21;54.81;97152.19;10399368;28;20120;-20
2021/12/30 08:42:28;;;;;;;0.70;0.30;;;;;;;18.22;54.74;97156.41;10398261;28;20044;-20
2021/12/30 08:47:31;;;;;;;1.27;0.50;;;;;;;18.21;54.53;97167.38;10410752;28;20045;-20
2021/12/30 08:52:31;;;;;;;2.45;0.50;;;;;;;18.23;54.70;97169.91;10408322;28;20064;-20
2021/12/30 08:57:34;;;;;;;1.35;0.50;;;;;;;18.27;54.48;97162.38;10406241;28;20045;-20
2021/12/30 09:02:34;;;;;;;0.90;0.63;;;;;;;18.24;54.70;97156.44;10412175;28;20033;-21
2021/12/30 09:07:35;;;;;;;0.97;0.97;;;;;;;18.25;54.77;97165.72;10405457;28;20041;-20
2021/12/30 09:12:36;;;;;;;0.50;0.40;;;;;;;18.23;54.57;97159.78;10404445;28;20026;-20
2021/12/30 09:17:37;;;;;;;0.50;0.50;;;;;;;18.20;54.81;97169.91;10410212;28;20112;-20
2021/12/30 09:22:39;;;;;;;0.98;0.30;;;;;;;18.23;54.78;97175.84;10406109;28;20113;-20
2021/12/30 09:27:40;;;;;;;1.08;0.50;;;;;;;18.22;54.96;97168.22;10407700;28;20099;-20
2021/12/30 09:32:44;;;;;;;0.47;0.47;;;;;;;18.23;54.63;97157.25;10409575;28;20124;-20
2021/12/30 09:37:46;;;;;;;0.70;0.70;;;;;;;18.23;54.70;97168.25;10405214;28;20057;-20
2021/12/30 09:42:51;;;;;;;0.47;0.40;;;;;;;18.23;54.90;97172.44;10405815;28;20445;-20
2021/12/30 09:47:54;;;;;;;0.93;0.70;;;;;;;18.25;54.80;97158.13;10407516;28;20037;-20
2021/12/30 09:52:56;;;;;;;0.90;0.40;;;;;;;18.26;54.64;97154.75;10409110;28;20560;-20
2021/12/30 09:57:57;;;;;;;0.95;0.57;;;;;;;18.23;54.54;97144.56;10403259;28;20120;-20
2021/12/30 10:02:57;;;;;;;0.60;0.60;;;;;;;18.23;54.62;97149.63;10408503;28;20029;-20
2021/12/30 10:08:10;;;;;;;1.83;0.50;;;;;;;18.23;55.11;97149.63;10408928;28;20607;-20
2021/12/30 10:13:21;;;;;;;0.70;0.45;;;;;;;18.24;54.83;97152.19;10407129;28;20060;-20
2021/12/30 10:18:24;;;;;;;1.23;0.70;;;;;;;18.23;54.58;97139.50;10396827;28;20030;-20
2021/12/30 10:23:25;;;;;;;0.98;0.57;;;;;;;18.23;54.77;97153.03;10408487;28;20545;-20
2021/12/30 10:28:27;;;;;;;0.70;0.70;;;;;;;18.23;54.71;97152.16;10403789;28;20500;-20
2021/12/30 10:33:29;;;;;;;1.38;0.50;;;;;;;18.24;54.74;97151.38;10402038;28;20504;-21
2021/12/30 10:38:30;;;;;;;0.63;0.50;;;;;;;18.15;54.89;97121.72;10401314;28;20068;-21
2021/12/30 10:43:45;;;;;;;1.48;0.55;;;;;;;18.28;54.74;97145.47;10404588;28;20041;-21
2021/12/30 10:49:05;;;;;;;0.45;0.40;;;;;;;18.33;54.69;97138.78;10404195;28;20036;-20
2021/12/30 10:54:19;;;;;;;0.50;0.45;;;;;;;18.32;54.56;97152.31;10407746;28;20037;-20
2021/12/30 10:59:24;;;;;;;0.40;0.30;;;;;;;18.29;54.80;97149.69;10405233;28;20484;-20
2021/12/30 11:04:39;;;;;;;1.20;0.40;;;;;;;18.28;54.81;97140.41;10406337;28;20037;-20
2021/12/30 11:09:49;;;;;;;0.88;0.70;;;;;;;18.27;54.46;97131.97;10406537;28;20184;-20
2021/12/30 11:14:49;;;;;;;0.70;0.47;;;;;;;18.27;54.79;97139.56;10403102;28;20045;-20
2021/12/30 11:19:58;;;;;;;0.50;0.50;;;;;;;18.28;54.80;97141.25;10400606;28;20482;-20
2021/12/30 11:25:01;;;;;;;0.80;0.60;;;;;;;18.27;54.93;97147.16;10406612;28;20112;-20
2021/12/30 11:30:07;;;;;;;0.63;0.57;;;;;;;18.28;54.73;97137.84;10402870;28;20056;-20
2021/12/30 11:35:08;;;;;;;1.05;0.70;;;;;;;18.28;54.92;97137.84;10400181;28;20549;-20
2021/12/30 11:40:15;;;;;;;1.02;0.52;;;;;;;18.32;54.56;97130.31;10406002;28;20441;-20
2021/12/30 11:45:30;;;;;;;2.25;0.98;;;;;;;18.23;60.46;97139.50;10402117;28;20030;-20
2021/12/30 11:50:37;;;;;;;1.60;0.40;;;;;;;18.26;56.86;97129.41;10395544;28;20041;-20
2021/12/30 11:55:43;;;;;;;;;;;;;;;18.33;56.04;97137.09;10406419;28;20044;-20
2021/12/30 12:00:43;;;;;;;5.68;0.63;;;;;;;18.34;55.66;97128.63;10401300;28;19962;-21
2021/12/30 12:05:44;;;;;;;5.60;0.90;;;;;;;18.35;55.75;97129.50;10402745;28;20102;-20
2021/12/30 12:11:12;;;;;;;7.55;0.80;;;;;;;18.34;55.99;97133.72;10405610;28;20376;-20
2021/12/30 12:16:36;;;;;;;0.77;0.75;;;;;;;18.35;55.84;97129.50;10403760;28;20287;-20
2021/12/30 12:21:45;;;;;;;1.80;0.95;;;;;;;18.35;56.07;97120.19;10404808;28;20033;-21
2021/12/30 12:26:45;;;;;;;2.22;0.80;;;;;;;18.34;56.03;97112.59;10412054;28;20025;-20
2021/12/30 12:31:57;;;;;;;1.88;0.95;;;;;;;18.34;56.11;97107.53;10411422;28;20034;-20
2021/12/30 12:36:58;;;;;;;3.65;0.65;;;;;;;18.38;55.83;97114.28;10403090;28;20036;-20
2021/12/30 12:41:58;;;;;;;2.35;0.88;;;;;;;18.35;55.80;97111.75;10411825;28;20048;-20
2021/12/30 12:47:00;;;;;;;1.55;0.65;;;;;;;18.34;55.78;97108.34;10413154;28;20037;-20
2021/12/30 12:52:04;;;;;;;2.85;0.80;;;;;;;18.32;55.87;97109.22;10409581;28;20037;-21
2021/12/30 12:57:21;;;;;;;0.55;0.55;;;;;;;18.32;55.56;97094.00;10407240;28;20558;-20
2021/12/30 13:02:22;;;;;;;0.55;0.55;;;;;;;18.31;55.87;97107.50;10410391;28;20119;-22
2021/12/30 13:07:22;;;;;;;0.70;0.50;;;;;;;18.33;55.97;97116.81;10411668;28;20041;-20
2021/12/30 13:12:22;;;;;;;2.30;0.90;;;;;;;18.34;55.72;97118.50;10411182;28;20039;-21
2021/12/30 13:17:23;;;;;;;0.90;0.70;;;;;;;18.12;55.68;97085.38;10410873;28;20291;-21
2021/12/30 13:22:23;;;;;;;2.67;0.70;;;;;;;18.33;55.87;97126.13;10405519;28;20088;-22
2021/12/30 13:27:29;;;;;;;1.00;0.90;;;;;;;18.34;55.59;97132.88;10408289;28;20034;-21
2021/12/30 13:32:32;;;;;;;1.40;0.98;;;;;;;18.36;55.37;97126.97;10410374;28;20295;-21
2021/12/30 13:37:50;;;;;;;1.17;0.63;;;;;;;18.37;55.48;97132.88;10404343;28;20061;-21
2021/12/30 13:42:52;;;;;;;2.78;1.10;;;;;;;18.37;55.64;97138.81;10409638;28;20104;-21
2021/12/30 13:47:53;;;;;;;3.47;1.38;;;;;;;18.35;56.36;97137.09;10407867;28;20033;-20
2021/12/30 13:52:54;;;;;;;2.53;1.10;;;;;;;18.34;55.72;97133.72;10408652;28;20030;-21
2021/12/30 13:58:04;;;;;;;2.47;0.88;;;;;;;18.34;56.38;97143.00;10408759;28;20030;-21
2021/12/30 14:03:11;;;;;;;2.65;1.02;;;;;;;18.33;56.38;97146.41;10409200;28;20559;-20
2021/12/30 14:08:12;;;;;;;;;;;;;;;18.34;56.76;97150.63;10409975;28;20091;-21
2021/12/30 14:13:14;;;;;;;4.97;1.00;;;;;;;18.35;56.82;97157.38;10408683;28;19943;-21
2021/12/30 14:18:14;;;;;;;3.45;1.23;;;;;;;18.35;57.26;97157.38;10403013;28;20109;-21
2021/12/30 14:23:28;;;;;;;2.10;1.40;;;;;;;18.34;57.23;97160.75;10408165;28;20407;-21
2021/12/30 14:28:29;;;;;;;1.83;1.30;;;;;;;18.39;56.59;97161.63;10400425;28;20401;-21
2021/12/30 14:33:34;;;;;;;2.03;1.10;;;;;;;18.39;56.04;97164.16;10402304;28;20149;-21
2021/12/30 14:38:34;;;;;;;4.18;1.85;;;;;;;18.38;56.45;97170.06;10402306;28;20104;-20
2021/12/30 14:44:08;;;;;;;8.13;2.20;;;;;;;18.39;57.05;97174.31;10402884;28;20030;-21
2021/12/30 14:49:19;;;;;;;7.80;2.92;;;;;;;18.33;57.25;97176.81;10403669;28;20103;-20
2021/12/30 14:54:19;;;;;;;5.25;1.83;;;;;;;18.33;56.55;97185.25;10407522;28;20076;-20
2021/12/30 14:59:20;;;;;;;3.27;1.50;;;;;;;18.33;57.37;97189.50;10406071;28;20053;-20
2021/12/30 15:04:20;;;;;;;5.55;1.73;;;;;;;18.32;57.36;97190.31;10401438;28;20120;-20
2021/12/30 15:09:21;;;;;;;9.43;2.13;;;;;;;18.33;57.12;97184.41;10399486;28;20041;-20
2021/12/30 15:14:22;;;;;;;10.93;1.53;;;;;;;18.37;56.88;97173.44;10396130;28;20056;-21
2021/12/30 15:19:22;;;;;;;5.32;1.50;;;;;;;18.42;56.68;97181.94;10400342;28;20393;-20
2021/12/30 15:24:22;;;;;;;3.70;1.20;;;;;;;18.44;56.44;97185.34;10395389;28;20368;-21
2021/12/30 15:29:23;;;;;;;5.97;1.63;;;;;;;18.40;57.22;97196.31;10396908;28;20296;-20
2021/12/30 15:34:24;;;;;;;17.02;2.17;;;;;;;18.37;56.32;97193.72;10401684;28;20292;-21
2021/12/30 15:39:24;;;;;;;8.30;1.50;;;;;;;18.34;57.43;97211.47;10405174;28;20036;-21
2021/12/30 15:44:25;;;;;;;5.82;1.90;;;;;;;18.30;57.78;97213.13;10401820;28;20303;-21
2021/12/30 15:49:25;;;;;;;5.63;1.30;;;;;;;18.25;56.74;97224.84;10401339;28;20029;-21
2021/12/30 15:54:26;;;;;;;6.60;1.70;;;;;;;18.29;57.89;97233.34;10406062;28;20041;-20
2021/12/30 15:59:27;;;;;;;6.35;1.85;;;;;;;18.27;57.41;97242.63;10413511;28;20113;-21
2021/12/30 16:04:29;;;;;;;3.38;1.20;;;;;;;18.28;57.61;97249.38;10409630;28;20057;-20
2021/12/30 16:09:29;;;;;;;2.10;1.20;;;;;;;18.28;57.73;97254.44;10409853;28;20497;-21
2021/12/30 16:14:29;;;;;;;4.20;1.53;;;;;;;18.25;58.03;97255.28;10413533;28;20034;-21
2021/12/30 16:19:30;;;;;;;4.20;1.43;;;;;;;18.28;57.41;97260.38;10407935;28;20029;-21
2021/12/30 16:24:30;;;;;;;6.32;1.48;;;;;;;18.33;56.87;97268.06;10413021;28;20036;-20
2021/12/30 16:29:31;;;;;;;4.93;2.77;;;;;;;18.36;56.26;97268.94;10403371;28;20036;-20
2021/12/30 16:34:32;;;;;;;3.05;1.23;;;;;;;18.38;56.20;97269.81;10401666;28;20487;-21
2021/12/30 16:39:34;;;;;;;7.22;2.20;;;;;;;18.40;56.29;97275.72;10408539;28;20037;-21
2021/12/30 16:44:34;;;;;;;5.25;2.15;;;;;;;18.45;56.03;97285.91;10400669;28;20373;-21
2021/12/30 16:49:34;;;;;;;6.97;2.73;;;;;;;18.45;56.57;97278.31;10402516;28;20037;-21
2021/12/30 16:54:35;;;;;;;7.50;2.90;;;;;;;18.46;56.22;97288.47;10411688;28;20044;-21
2021/12/30 16:59:35;;;;;;;11.33;3.73;;;;;;;18.48;56.44;97291.00;10411330;28;20033;-21
2021/12/30 17:04:35;;;;;;;7.87;4.07;;;;;;;18.48;57.22;97296.06;10404237;28;20303;-21
2021/12/30 17:09:36;;;;;;;13.98;4.88;;;;;;;18.44;58.22;97296.88;10412959;28;20033;-21
2021/12/30 17:14:37;;;;;;;12.27;4.20;;;;;;;18.40;58.01;97306.16;10406701;28;20038;-21
2021/12/30 17:19:37;;;;;;;5.20;3.35;;;;;;;18.39;57.01;97309.53;10405444;28;20510;-21
2021/12/30 17:24:38;;;;;;;9.70;4.60;;;;;;;18.36;58.05;97303.56;10411164;28;20041;-21
2021/12/30 17:29:38;;;;;;;5.70;3.50;;;;;;;18.36;58.00;97298.50;10408973;28;20698;-21
2021/12/30 17:34:38;;;;;;;10.67;3.63;;;;;;;18.36;57.80;97306.09;10406969;28;20310;-21
2021/12/30 17:39:40;;;;;;;11.00;5.90;;;;;;;18.32;57.93;97314.53;10399102;28;20798;-21
2021/12/30 17:44:40;;;;;;;13.65;4.07;;;;;;;18.33;57.77;97313.69;10402401;28;21048;-22
2021/12/30 17:49:41;;;;;;;6.97;3.65;;;;;;;18.38;57.30;97317.09;10403947;28;20048;-21
2021/12/30 17:54:41;;;;;;;12.43;5.25;;;;;;;18.43;57.73;97316.31;10409426;28;20037;-21
2021/12/30 17:59:42;;;;;;;9.57;5.53;;;;;;;18.44;58.57;97312.09;10406491;28;20083;-21
2021/12/30 18:04:42;;;;;;;13.98;6.60;;;;;;;18.41;59.23;97314.63;10408771;28;20892;-21
2021/12/30 18:09:42;;;;;;;11.90;6.50;;;;;;;18.40;58.79;97326.44;10408898;28;20484;-21
2021/12/30 18:14:43;;;;;;;8.83;6.07;;;;;;;18.33;58.67;97323.84;10410382;28;20068;-21
2021/12/30 18:19:44;;;;;;;10.60;6.03;;;;;;;18.39;58.67;97331.47;10402098;28;20491;-22
2021/12/30 18:24:46;;;;;;;11.00;5.45;;;;;;;18.50;58.17;97332.44;10409476;28;20035;-21
2021/12/30 18:29:48;;;;;;;8.13;4.60;;;;;;;18.56;57.41;97330.81;10407403;28;20507;-21
2021/12/30 18:34:48;;;;;;;7.05;5.68;;;;;;;18.62;57.47;97332.56;10401999;28;20064;-21
2021/12/30 18:39:49;;;;;;;8.55;5.20;;;;;;;18.57;57.20;97319.84;10407999;28;20041;-21
2021/12/30 18:44:49;;;;;;;9.50;5.23;;;;;;;18.59;57.09;97313.09;10403695;28;20036;-21
2021/12/30 18:49:50;;;;;;;9.37;5.47;;;;;;;18.69;56.99;97326.69;10404011;28;20037;-21
2021/12/30 18:54:51;;;;;;;10.07;6.05;;;;;;;18.62;57.33;97332.56;10407565;28;20059;-21
2021/12/30 18:59:52;;;;;;;7.72;5.00;;;;;;;18.54;57.89;97329.09;10405160;28;20072;-21
2021/12/30 19:04:52;;;;;;;7.90;5.30;;;;;;;18.55;57.41;97326.59;10406294;28;20637;-21
2021/12/30 19:09:55;;;;;;;9.85;5.90;;;;;;;18.64;57.25;97330.88;10406488;28;20303;-21
2021/12/30 19:14:57;;;;;;;10.07;6.82;;;;;;;18.63;57.41;97332.56;10399654;28;20565;-20
2021/12/30 19:19:58;;;;;;;9.43;5.72;;;;;;;18.63;57.33;97334.25;10400675;28;20045;-21
2021/12/30 19:24:58;;;;;;;11.90;5.63;;;;;;;18.61;57.40;97323.25;10404473;28;20516;-22
2021/12/30 19:30:00;;;;;;;8.83;6.20;;;;;;;18.63;57.31;97329.19;10399407;28;20040;-21
2021/12/30 19:35:00;;;;;;;15.43;8.20;;;;;;;18.59;58.07;97333.38;10396448;28;20492;-22
2021/12/30 19:40:00;;;;;;;12.33;8.50;;;;;;;18.54;57.97;97329.97;10405369;28;20041;-21
2021/12/30 19:45:01;;;;;;;15.05;7.78;;;;;;;18.53;58.60;97328.25;10403356;28;20155;-22
2021/12/30 19:50:03;;;;;;;15.30;8.05;;;;;;;18.55;58.38;97335.88;10404119;28;20041;-22
2021/12/30 19:55:04;;;;;;;15.20;7.32;;;;;;;18.53;58.51;97333.34;10404868;28;20504;-21
2021/12/30 20:00:10;;;;;;;14.77;7.65;;;;;;;18.53;58.43;97335.88;10403496;28;20057;-21
2021/12/30 20:05:11;;;;;;;12.13;6.90;;;;;;;18.50;58.30;97338.34;10394044;28;20038;-21
2021/12/30 20:10:12;;;;;;;15.48;7.40;;;;;;;18.53;58.14;97347.69;10400820;28;20072;-21
2021/12/30 20:15:14;;;;;;;13.02;7.40;;;;;;;18.50;58.27;97347.66;10412963;28;20582;-23
2021/12/30 20:20:15;;;;;;;15.15;7.07;;;;;;;18.49;58.16;97348.50;10396663;28;20033;-22
2021/12/30 20:25:19;;;;;;;18.75;6.85;;;;;;;18.48;58.22;97354.38;10396981;28;20475;-21
2021/12/30 20:30:23;;;;;;;12.82;7.07;;;;;;;18.51;58.11;97356.97;10396489;28;20491;-21
2021/12/30 20:35:26;;;;;;;10.25;6.45;;;;;;;18.49;58.12;97351.03;10393109;28;20046;-22
2021/12/30 20:40:28;;;;;;;10.85;6.72;;;;;;;18.50;57.76;97353.56;10403994;28;20033;-21
2021/12/30 20:45:29;;;;;;;10.55;6.38;;;;;;;18.43;57.76;97345.91;10404406;28;20025;-21
2021/12/30 20:50:29;;;;;;;12.38;5.85;;;;;;;18.50;57.57;97363.72;10405471;28;20146;-22
2021/12/30 20:55:35;;;;;;;10.88;6.20;;;;;;;18.51;57.61;97365.41;10405830;28;20026;-21
2021/12/30 21:00:36;;;;;;;9.93;6.15;;;;;;;18.49;57.75;97367.09;10405830;28;20036;-21
2021/12/30 21:05:38;;;;;;;9.65;6.30;;;;;;;18.50;57.62;97378.94;10404465;28;20479;-21
2021/12/30 21:10:42;;;;;;;11.85;6.45;;;;;;;18.51;57.50;97377.25;10405346;28;20033;-21
2021/12/30 21:15:44;;;;;;;13.30;6.75;;;;;;;18.51;57.55;97375.56;10406165;28;20029;-22
2021/12/30 21:20:45;;;;;;;12.18;6.25;;;;;;;18.51;57.37;97379.78;10405347;28;20395;-22
2021/12/30 21:25:48;;;;;;;12.35;5.85;;;;;;;18.43;57.50;97371.25;10406355;28;20058;-21
2021/12/30 21:30:49;;;;;;;9.70;5.45;;;;;;;18.50;57.38;97378.94;10403072;28;20048;-21
2021/12/30 21:35:54;;;;;;;8.32;5.90;;;;;;;18.53;57.43;97378.13;10400707;28;20067;-22
2021/12/30 21:40:55;;;;;;;8.85;5.45;;;;;;;18.48;57.32;97373.00;10406121;28;20033;-21
2021/12/30 21:45:55;;;;;;;13.20;7.35;;;;;;;18.43;57.31;97377.16;10403638;28;20025;-21
2021/12/30 21:50:56;;;;;;;9.85;6.35;;;;;;;18.46;57.44;97386.50;10404661;28;20496;-21
2021/12/30 21:55:56;;;;;;;8.48;5.57;;;;;;;18.43;57.57;97382.22;10402562;28;20035;-21
2021/12/30 22:00:57;;;;;;;9.07;5.32;;;;;;;18.43;57.65;97381.41;10405257;28;20391;-21
2021/12/30 22:05:58;;;;;;;11.73;6.38;;;;;;;18.43;57.49;97381.41;10403819;28;20036;-21
2021/12/30 22:10:59;;;;;;;10.60;5.10;;;;;;;18.41;57.40;97373.75;10405156;28;20192;-21
2021/12/30 22:15:59;;;;;;;9.73;5.50;;;;;;;18.43;57.27;97381.41;10401151;28;20111;-21
2021/12/30 22:21:02;;;;;;;8.20;5.10;;;;;;;18.46;57.57;97396.63;10400911;28;20103;-21
2021/12/30 22:26:05;;;;;;;9.57;6.30;;;;;;;18.46;58.19;97409.31;10403415;28;20021;-22
2021/12/30 22:31:05;;;;;;;9.38;5.78;;;;;;;18.46;57.67;97406.78;10401090;28;20113;-22
2021/12/30 22:36:06;;;;;;;7.80;5.33;;;;;;;18.44;58.29;97409.31;10399746;28;20049;-21
2021/12/30 22:41:08;;;;;;;10.07;5.65;;;;;;;18.46;58.24;97404.22;10402592;28;20262;-21
2021/12/30 22:46:10;;;;;;;8.55;5.82;;;;;;;18.45;58.20;97389.88;10401109;28;20041;-21
2021/12/30 22:51:12;;;;;;;9.38;5.93;;;;;;;18.39;58.38;97389.78;10399868;28;20041;-21
2021/12/30 22:56:13;;;;;;;8.48;5.60;;;;;;;18.43;58.54;97405.03;10400551;28;20045;-22
2021/12/30 23:01:16;;;;;;;6.45;5.22;;;;;;;18.44;58.56;97394.09;10402261;28;20037;-22
2021/12/30 23:06:19;;;;;;;8.68;5.65;;;;;;;18.45;58.40;97402.53;10402338;28;20030;-21
2021/12/30 23:11:22;;;;;;;10.25;5.85;;;;;;;18.48;58.33;97405.09;10404471;28;20042;-29
2021/12/30 23:16:23;;;;;;;8.48;5.18;;;;;;;18.49;58.48;97391.63;10402303;28;20040;-21
2021/12/30 23:21:24;;;;;;;10.02;5.53;;;;;;;18.51;58.36;97405.16;10400159;28;20075;-21
2021/12/30 23:26:25;;;;;;;12.80;6.53;;;;;;;18.45;58.51;97408.47;10405517;28;20029;-21